sensor_id;sensor_type;location;lat;lon;timestamp;temperature;humidity
57058;DHT22;55017;52.848;6.748;2023-10-09T00:00:34;13.70;99.90
57058;DHT22;55017;52.848;6.748;2023-10-09T00:03:03;13.80;99.90
57058;DHT22;55017;52.848;6.748;2023-10-09T00:05:30;13.70;99.90
57058;DHT22;55017;52.848;6.748;2023-10-09T00:08:12;13.80;99.90
57058;DHT22;55017;52.848;6.748;2023-10-09T00:11:00;13.80;99.90
57058;DHT22;55017;52.848;6.748;2023-10-09T00:13:47;13.70;99.90
57058;DHT22;55017;52.848;6.748;2023-10-09T00:16:23;13.70;99.90
57058;DHT22;55017;52.848;6.748;2023-10-09T00:19:00;13.80;99.90
57058;DHT22;55017;52.848;6.748;2023-10-09T00:21:46;13.80;99.90
57058;DHT22;55017;52.848;6.748;2023-10-09T00:24:12;13.80;99.90
57058;DHT22;55017;52.848;6.748;2023-10-09T00:26:54;13.60;99.90
57058;DHT22;55017;52.848;6.748;2023-10-09T00:29:39;13.90;99.90
57058;DHT22;55017;52.848;6.748;2023-10-09T00:32:15;13.70;99.90
57058;DHT22;55017;52.848;6.748;2023-10-09T00:34:43;13.60;99.90
57058;DHT22;55017;52.848;6.748;2023-10-09T00:37:10;13.80;99.90
57058;DHT22;55017;52.848;6.748;2023-10-09T00:39:44;13.70;99.90
57058;DHT22;55017;52.848;6.748;2023-10-09T00:42:11;13.80;99.90
57058;DHT22;55017;52.848;6.748;2023-10-09T00:44:38;13.70;99.90
57058;DHT22;55017;52.848;6.748;2023-10-09T00:47:15;13.80;99.90
57058;DHT22;55017;52.848;6.748;2023-10-09T00:50:02;13.70;99.90
57058;DHT22;55017;52.848;6.748;2023-10-09T00:52:57;13.90;99.90
57058;DHT22;55017;52.848;6.748;2023-10-09T00:55:31;13.70;99.90
57058;DHT22;55017;52.848;6.748;2023-10-09T00:58:10;14.00;99.90
57058;DHT22;55017;52.848;6.748;2023-10-09T01:00:39;13.70;99.90
57058;DHT22;55017;52.848;6.748;2023-10-09T01:03:12;13.70;99.90
57058;DHT22;55017;52.848;6.748;2023-10-09T01:05:44;13.70;99.90
57058;DHT22;55017;52.848;6.748;2023-10-09T01:08:27;13.60;99.90
57058;DHT22;55017;52.848;6.748;2023-10-09T01:11:11;13.70;99.90
57058;DHT22;55017;52.848;6.748;2023-10-09T01:13:45;13.70;99.90
57058;DHT22;55017;52.848;6.748;2023-10-09T01:16:14;13.70;99.90
57058;DHT22;55017;52.848;6.748;2023-10-09T01:18:43;13.70;99.90
57058;DHT22;55017;52.848;6.748;2023-10-09T01:21:10;13.60;99.90
57058;DHT22;55017;52.848;6.748;2023-10-09T01:23:43;13.60;99.90
57058;DHT22;55017;52.848;6.748;2023-10-09T01:26:44;13.60;99.90
57058;DHT22;55017;52.848;6.748;2023-10-09T01:29:10;13.60;99.90
57058;DHT22;55017;52.848;6.748;2023-10-09T01:31:40;13.70;99.90
57058;DHT22;55017;52.848;6.748;2023-10-09T01:34:12;13.60;99.90
57058;DHT22;55017;52.848;6.748;2023-10-09T01:36:41;13.50;99.90
57058;DHT22;55017;52.848;6.748;2023-10-09T01:39:07;13.60;99.90
57058;DHT22;55017;52.848;6.748;2023-10-09T01:41:48;13.50;99.90
57058;DHT22;55017;52.848;6.748;2023-10-09T01:44:15;13.50;99.90
57058;DHT22;55017;52.848;6.748;2023-10-09T01:46:42;13.50;99.90
57058;DHT22;55017;52.848;6.748;2023-10-09T01:49:12;13.60;99.90
57058;DHT22;55017;52.848;6.748;2023-10-09T01:51:43;13.60;99.90
57058;DHT22;55017;52.848;6.748;2023-10-09T01:54:08;13.60;99.90
57058;DHT22;55017;52.848;6.748;2023-10-09T01:56:57;13.50;99.90
57058;DHT22;55017;52.848;6.748;2023-10-09T01:59:22;13.60;99.90
57058;DHT22;55017;52.848;6.748;2023-10-09T02:01:48;13.50;99.90
57058;DHT22;55017;52.848;6.748;2023-10-09T02:04:13;13.40;99.90
57058;DHT22;55017;52.848;6.748;2023-10-09T02:06:41;13.50;99.90
57058;DHT22;55017;52.848;6.748;2023-10-09T02:09:07;13.60;99.90
57058;DHT22;55017;52.848;6.748;2023-10-09T02:11:33;13.50;99.90
57058;DHT22;55017;52.848;6.748;2023-10-09T02:14:05;13.40;99.90
57058;DHT22;55017;52.848;6.748;2023-10-09T02:16:49;13.50;99.90
57058;DHT22;55017;52.848;6.748;2023-10-09T02:19:33;13.50;99.90
57058;DHT22;55017;52.848;6.748;2023-10-09T02:22:00;13.50;99.90
57058;DHT22;55017;52.848;6.748;2023-10-09T02:24:31;13.40;99.90
57058;DHT22;55017;52.848;6.748;2023-10-09T02:27:18;13.50;99.90
57058;DHT22;55017;52.848;6.748;2023-10-09T02:30:04;13.50;99.90
57058;DHT22;55017;52.848;6.748;2023-10-09T02:32:44;13.50;99.90
57058;DHT22;55017;52.848;6.748;2023-10-09T02:35:10;13.40;99.90
57058;DHT22;55017;52.848;6.748;2023-10-09T02:38:05;13.50;99.90
57058;DHT22;55017;52.848;6.748;2023-10-09T02:40:35;13.50;99.90
57058;DHT22;55017;52.848;6.748;2023-10-09T02:43:21;13.40;99.90
57058;DHT22;55017;52.848;6.748;2023-10-09T02:45:50;13.50;99.90
57058;DHT22;55017;52.848;6.748;2023-10-09T02:48:17;13.40;99.90
57058;DHT22;55017;52.848;6.748;2023-10-09T02:50:46;13.50;99.90
57058;DHT22;55017;52.848;6.748;2023-10-09T02:53:12;13.50;99.90
57058;DHT22;55017;52.848;6.748;2023-10-09T02:55:44;13.50;99.90
57058;DHT22;55017;52.848;6.748;2023-10-09T02:58:19;13.50;99.90
57058;DHT22;55017;52.848;6.748;2023-10-09T03:00:46;13.50;99.90
57058;DHT22;55017;52.848;6.748;2023-10-09T03:03:14;13.60;99.90
57058;DHT22;55017;52.848;6.748;2023-10-09T03:05:44;13.50;99.90
57058;DHT22;55017;52.848;6.748;2023-10-09T03:08:09;13.50;99.90
57058;DHT22;55017;52.848;6.748;2023-10-09T03:10:38;13.40;99.90
57058;DHT22;55017;52.848;6.748;2023-10-09T03:13:04;13.50;99.90
57058;DHT22;55017;52.848;6.748;2023-10-09T03:15:31;13.50;99.90
57058;DHT22;55017;52.848;6.748;2023-10-09T03:18:02;13.60;99.90
57058;DHT22;55017;52.848;6.748;2023-10-09T03:20:30;13.40;99.90
57058;DHT22;55017;52.848;6.748;2023-10-09T03:22:56;13.50;99.90
57058;DHT22;55017;52.848;6.748;2023-10-09T03:25:23;13.50;99.90
57058;DHT22;55017;52.848;6.748;2023-10-09T03:27:50;13.50;99.90
57058;DHT22;55017;52.848;6.748;2023-10-09T03:30:18;13.50;99.90
57058;DHT22;55017;52.848;6.748;2023-10-09T03:32:51;13.50;99.90
57058;DHT22;55017;52.848;6.748;2023-10-09T03:35:18;13.60;99.90
57058;DHT22;55017;52.848;6.748;2023-10-09T03:37:54;13.50;99.90
57058;DHT22;55017;52.848;6.748;2023-10-09T03:40:26;13.50;99.90
57058;DHT22;55017;52.848;6.748;2023-10-09T03:42:52;13.50;99.90
57058;DHT22;55017;52.848;6.748;2023-10-09T03:45:19;13.50;99.90
57058;DHT22;55017;52.848;6.748;2023-10-09T03:47:54;13.60;99.90
57058;DHT22;55017;52.848;6.748;2023-10-09T03:50:28;13.50;99.90
57058;DHT22;55017;52.848;6.748;2023-10-09T03:53:02;13.60;99.90
57058;DHT22;55017;52.848;6.748;2023-10-09T03:55:28;13.60;99.90
57058;DHT22;55017;52.848;6.748;2023-10-09T03:57:55;13.60;99.90
57058;DHT22;55017;52.848;6.748;2023-10-09T04:00:23;13.70;99.90
57058;DHT22;55017;52.848;6.748;2023-10-09T04:02:56;13.60;99.90
57058;DHT22;55017;52.848;6.748;2023-10-09T04:05:25;13.70;99.90
57058;DHT22;55017;52.848;6.748;2023-10-09T04:07:51;13.70;99.90
57058;DHT22;55017;52.848;6.748;2023-10-09T04:10:22;13.60;99.90
57058;DHT22;55017;52.848;6.748;2023-10-09T04:13:06;13.70;99.90
57058;DHT22;55017;52.848;6.748;2023-10-09T04:15:36;13.80;99.90
57058;DHT22;55017;52.848;6.748;2023-10-09T04:18:02;13.80;99.90
57058;DHT22;55017;52.848;6.748;2023-10-09T04:20:29;13.90;99.90
57058;DHT22;55017;52.848;6.748;2023-10-09T04:22:55;13.90;99.90
57058;DHT22;55017;52.848;6.748;2023-10-09T04:25:30;13.90;99.90
57058;DHT22;55017;52.848;6.748;2023-10-09T04:28:08;13.80;99.90
57058;DHT22;55017;52.848;6.748;2023-10-09T04:30:41;14.00;99.90
57058;DHT22;55017;52.848;6.748;2023-10-09T04:33:11;14.00;99.90
57058;DHT22;55017;52.848;6.748;2023-10-09T04:36:02;14.00;99.90
57058;DHT22;55017;52.848;6.748;2023-10-09T04:38:51;14.00;99.90
57058;DHT22;55017;52.848;6.748;2023-10-09T04:41:29;14.00;99.90
57058;DHT22;55017;52.848;6.748;2023-10-09T04:43:58;14.10;99.90
57058;DHT22;55017;52.848;6.748;2023-10-09T04:46:43;14.10;99.90
57058;DHT22;55017;52.848;6.748;2023-10-09T04:49:10;14.20;99.90
57058;DHT22;55017;52.848;6.748;2023-10-09T04:51:54;14.20;99.90
57058;DHT22;55017;52.848;6.748;2023-10-09T04:54:44;14.30;99.90
57058;DHT22;55017;52.848;6.748;2023-10-09T04:57:43;14.30;99.90
57058;DHT22;55017;52.848;6.748;2023-10-09T05:00:11;14.30;99.90
57058;DHT22;55017;52.848;6.748;2023-10-09T05:02:54;14.40;99.90
57058;DHT22;55017;52.848;6.748;2023-10-09T05:05:21;14.40;99.90
57058;DHT22;55017;52.848;6.748;2023-10-09T05:08:05;14.40;99.90
57058;DHT22;55017;52.848;6.748;2023-10-09T05:13:28;14.50;99.90
57058;DHT22;55017;52.848;6.748;2023-10-09T05:16:07;14.60;99.90
57058;DHT22;55017;52.848;6.748;2023-10-09T05:18:44;14.60;99.90
57058;DHT22;55017;52.848;6.748;2023-10-09T05:21:13;14.60;99.90
57058;DHT22;55017;52.848;6.748;2023-10-09T05:23:39;14.60;99.90
57058;DHT22;55017;52.848;6.748;2023-10-09T05:26:17;14.70;99.90
57058;DHT22;55017;52.848;6.748;2023-10-09T05:29:03;14.60;99.90
57058;DHT22;55017;52.848;6.748;2023-10-09T05:31:48;14.70;99.90
57058;DHT22;55017;52.848;6.748;2023-10-09T05:34:29;14.70;99.90
57058;DHT22;55017;52.848;6.748;2023-10-09T05:37:13;14.70;99.90
57058;DHT22;55017;52.848;6.748;2023-10-09T05:39:53;14.70;99.90
57058;DHT22;55017;52.848;6.748;2023-10-09T05:42:33;14.70;99.90
57058;DHT22;55017;52.848;6.748;2023-10-09T05:45:05;14.70;99.90
57058;DHT22;55017;52.848;6.748;2023-10-09T05:50:24;14.80;99.90
57058;DHT22;55017;52.848;6.748;2023-10-09T05:52:57;14.80;99.90
57058;DHT22;55017;52.848;6.748;2023-10-09T05:55:35;14.80;99.90
57058;DHT22;55017;52.848;6.748;2023-10-09T05:58:19;14.70;99.90
57058;DHT22;55017;52.848;6.748;2023-10-09T06:01:05;14.70;99.90
57058;DHT22;55017;52.848;6.748;2023-10-09T06:03:49;14.80;99.90
57058;DHT22;55017;52.848;6.748;2023-10-09T06:06:15;14.90;99.90
57058;DHT22;55017;52.848;6.748;2023-10-09T06:09:02;14.90;99.90
57058;DHT22;55017;52.848;6.748;2023-10-09T06:11:47;14.80;99.90
57058;DHT22;55017;52.848;6.748;2023-10-09T06:14:22;14.90;99.90
57058;DHT22;55017;52.848;6.748;2023-10-09T06:17:11;14.90;99.90
57058;DHT22;55017;52.848;6.748;2023-10-09T06:19:37;14.90;99.90
57058;DHT22;55017;52.848;6.748;2023-10-09T06:22:09;14.80;99.90
57058;DHT22;55017;52.848;6.748;2023-10-09T06:24:55;14.90;99.90
57058;DHT22;55017;52.848;6.748;2023-10-09T06:27:23;14.90;99.90
57058;DHT22;55017;52.848;6.748;2023-10-09T06:29:54;14.90;99.90
57058;DHT22;55017;52.848;6.748;2023-10-09T06:32:42;14.90;99.90
57058;DHT22;55017;52.848;6.748;2023-10-09T06:35:37;15.00;99.90
57058;DHT22;55017;52.848;6.748;2023-10-09T06:38:05;15.10;99.90
57058;DHT22;55017;52.848;6.748;2023-10-09T06:40:48;15.00;99.90
57058;DHT22;55017;52.848;6.748;2023-10-09T06:43:32;15.10;99.90
57058;DHT22;55017;52.848;6.748;2023-10-09T06:46:02;15.30;99.90
57058;DHT22;55017;52.848;6.748;2023-10-09T06:49:00;15.20;99.90
57058;DHT22;55017;52.848;6.748;2023-10-09T06:51:40;15.20;99.90
57058;DHT22;55017;52.848;6.748;2023-10-09T06:54:07;15.20;99.90
57058;DHT22;55017;52.848;6.748;2023-10-09T06:56:35;15.30;99.90
57058;DHT22;55017;52.848;6.748;2023-10-09T06:59:05;15.30;99.90
57058;DHT22;55017;52.848;6.748;2023-10-09T07:01:50;15.30;99.90
57058;DHT22;55017;52.848;6.748;2023-10-09T07:04:35;15.40;99.90
57058;DHT22;55017;52.848;6.748;2023-10-09T07:07:00;15.40;99.90
57058;DHT22;55017;52.848;6.748;2023-10-09T07:09:33;15.40;99.90
57058;DHT22;55017;52.848;6.748;2023-10-09T07:12:09;15.50;99.90
57058;DHT22;55017;52.848;6.748;2023-10-09T07:14:51;15.50;99.90
57058;DHT22;55017;52.848;6.748;2023-10-09T07:17:17;15.60;99.90
57058;DHT22;55017;52.848;6.748;2023-10-09T07:20:10;15.50;99.90
57058;DHT22;55017;52.848;6.748;2023-10-09T07:23:02;15.60;99.90
57058;DHT22;55017;52.848;6.748;2023-10-09T07:25:40;15.60;99.90
57058;DHT22;55017;52.848;6.748;2023-10-09T07:28:10;15.70;99.90
57058;DHT22;55017;52.848;6.748;2023-10-09T07:31:02;15.80;99.90
57058;DHT22;55017;52.848;6.748;2023-10-09T07:33:28;15.60;99.90
57058;DHT22;55017;52.848;6.748;2023-10-09T07:36:19;15.70;99.90
57058;DHT22;55017;52.848;6.748;2023-10-09T07:39:02;15.80;99.90
57058;DHT22;55017;52.848;6.748;2023-10-09T07:41:31;15.90;99.90
57058;DHT22;55017;52.848;6.748;2023-10-09T07:43:57;15.80;99.90
57058;DHT22;55017;52.848;6.748;2023-10-09T07:46:23;15.80;99.90
57058;DHT22;55017;52.848;6.748;2023-10-09T07:48:59;15.70;99.90
57058;DHT22;55017;52.848;6.748;2023-10-09T07:51:34;15.80;99.90
57058;DHT22;55017;52.848;6.748;2023-10-09T07:54:01;15.80;99.90
57058;DHT22;55017;52.848;6.748;2023-10-09T07:56:36;15.80;99.90
57058;DHT22;55017;52.848;6.748;2023-10-09T07:59:14;15.90;99.90
57058;DHT22;55017;52.848;6.748;2023-10-09T08:01:44;15.90;99.90
57058;DHT22;55017;52.848;6.748;2023-10-09T08:04:28;15.80;99.90
57058;DHT22;55017;52.848;6.748;2023-10-09T08:07:12;15.90;99.90
57058;DHT22;55017;52.848;6.748;2023-10-09T08:10:06;16.10;99.90
57058;DHT22;55017;52.848;6.748;2023-10-09T08:12:45;16.00;99.90
57058;DHT22;55017;52.848;6.748;2023-10-09T08:15:23;16.00;99.90
57058;DHT22;55017;52.848;6.748;2023-10-09T08:17:55;15.90;99.90
57058;DHT22;55017;52.848;6.748;2023-10-09T08:20:26;16.00;99.90
57058;DHT22;55017;52.848;6.748;2023-10-09T08:22:52;16.00;99.90
57058;DHT22;55017;52.848;6.748;2023-10-09T08:25:22;16.00;99.90
57058;DHT22;55017;52.848;6.748;2023-10-09T08:27:59;16.10;99.90
57058;DHT22;55017;52.848;6.748;2023-10-09T08:30:46;16.20;99.90
57058;DHT22;55017;52.848;6.748;2023-10-09T08:33:34;16.10;99.90
57058;DHT22;55017;52.848;6.748;2023-10-09T08:35:59;16.10;99.90
57058;DHT22;55017;52.848;6.748;2023-10-09T08:38:30;16.30;99.90
57058;DHT22;55017;52.848;6.748;2023-10-09T08:41:12;16.30;99.90
57058;DHT22;55017;52.848;6.748;2023-10-09T08:43:51;16.30;99.90
57058;DHT22;55017;52.848;6.748;2023-10-09T08:46:24;16.20;99.90
57058;DHT22;55017;52.848;6.748;2023-10-09T08:48:58;16.20;99.90
57058;DHT22;55017;52.848;6.748;2023-10-09T08:51:28;16.20;99.90
57058;DHT22;55017;52.848;6.748;2023-10-09T08:53:55;16.40;99.90
57058;DHT22;55017;52.848;6.748;2023-10-09T08:56:22;16.20;99.90
57058;DHT22;55017;52.848;6.748;2023-10-09T08:59:00;16.20;99.90
57058;DHT22;55017;52.848;6.748;2023-10-09T09:01:27;16.20;99.90
57058;DHT22;55017;52.848;6.748;2023-10-09T09:03:57;16.20;99.90
57058;DHT22;55017;52.848;6.748;2023-10-09T09:06:23;16.20;99.90
57058;DHT22;55017;52.848;6.748;2023-10-09T09:08:49;16.10;99.90
57058;DHT22;55017;52.848;6.748;2023-10-09T09:11:20;16.20;99.90
57058;DHT22;55017;52.848;6.748;2023-10-09T09:16:29;16.10;99.90
57058;DHT22;55017;52.848;6.748;2023-10-09T09:19:04;16.30;99.90
57058;DHT22;55017;52.848;6.748;2023-10-09T09:21:41;16.20;99.90
57058;DHT22;55017;52.848;6.748;2023-10-09T09:24:09;16.30;99.90
57058;DHT22;55017;52.848;6.748;2023-10-09T09:26:48;16.20;99.90
57058;DHT22;55017;52.848;6.748;2023-10-09T09:29:37;16.10;99.90
57058;DHT22;55017;52.848;6.748;2023-10-09T09:32:05;16.20;99.90
57058;DHT22;55017;52.848;6.748;2023-10-09T09:34:48;16.20;99.90
57058;DHT22;55017;52.848;6.748;2023-10-09T09:37:21;16.20;99.90
57058;DHT22;55017;52.848;6.748;2023-10-09T09:39:47;16.30;99.90
57058;DHT22;55017;52.848;6.748;2023-10-09T09:42:17;16.30;99.90
57058;DHT22;55017;52.848;6.748;2023-10-09T09:44:44;16.40;99.90
57058;DHT22;55017;52.848;6.748;2023-10-09T09:47:14;16.30;99.90
57058;DHT22;55017;52.848;6.748;2023-10-09T09:49:50;16.30;99.90
57058;DHT22;55017;52.848;6.748;2023-10-09T09:52:16;16.40;99.90
57058;DHT22;55017;52.848;6.748;2023-10-09T09:54:43;16.30;99.90
57058;DHT22;55017;52.848;6.748;2023-10-09T09:57:13;16.60;99.90
57058;DHT22;55017;52.848;6.748;2023-10-09T09:59:41;16.50;99.90
57058;DHT22;55017;52.848;6.748;2023-10-09T10:02:21;16.50;99.90
57058;DHT22;55017;52.848;6.748;2023-10-09T10:04:52;16.60;99.90
57058;DHT22;55017;52.848;6.748;2023-10-09T10:07:20;16.60;99.90
57058;DHT22;55017;52.848;6.748;2023-10-09T10:09:47;16.70;99.90
57058;DHT22;55017;52.848;6.748;2023-10-09T10:15:11;16.70;99.90
57058;DHT22;55017;52.848;6.748;2023-10-09T10:20:27;16.90;99.90
57058;DHT22;55017;52.848;6.748;2023-10-09T10:23:32;16.90;99.90
57058;DHT22;55017;52.848;6.748;2023-10-09T10:26:20;17.00;99.90
57058;DHT22;55017;52.848;6.748;2023-10-09T10:29:19;17.00;99.90
57058;DHT22;55017;52.848;6.748;2023-10-09T10:32:03;17.00;99.90
57058;DHT22;55017;52.848;6.748;2023-10-09T10:40:05;17.10;99.90
57058;DHT22;55017;52.848;6.748;2023-10-09T10:42:48;17.10;99.90
57058;DHT22;55017;52.848;6.748;2023-10-09T10:45:32;17.00;99.90
57058;DHT22;55017;52.848;6.748;2023-10-09T10:48:02;17.00;99.90
57058;DHT22;55017;52.848;6.748;2023-10-09T10:50:32;17.00;99.90
57058;DHT22;55017;52.848;6.748;2023-10-09T10:53:08;17.10;99.90
57058;DHT22;55017;52.848;6.748;2023-10-09T10:55:55;17.00;99.90
57058;DHT22;55017;52.848;6.748;2023-10-09T10:58:52;16.90;99.90
57058;DHT22;55017;52.848;6.748;2023-10-09T11:01:38;17.00;99.90
57058;DHT22;55017;52.848;6.748;2023-10-09T11:04:39;17.60;99.90
57058;DHT22;55017;52.848;6.748;2023-10-09T11:07:07;16.90;99.90
57058;DHT22;55017;52.848;6.748;2023-10-09T11:09:48;17.00;99.90
57058;DHT22;55017;52.848;6.748;2023-10-09T11:12:50;16.90;99.90
57058;DHT22;55017;52.848;6.748;2023-10-09T11:15:30;17.00;99.90
57058;DHT22;55017;52.848;6.748;2023-10-09T11:18:07;16.90;99.90
57058;DHT22;55017;52.848;6.748;2023-10-09T11:20:37;16.90;99.90
57058;DHT22;55017;52.848;6.748;2023-10-09T11:23:20;16.90;99.90
57058;DHT22;55017;52.848;6.748;2023-10-09T11:25:55;17.00;99.90
57058;DHT22;55017;52.848;6.748;2023-10-09T11:28:40;16.90;99.90
57058;DHT22;55017;52.848;6.748;2023-10-09T11:31:15;17.00;99.90
57058;DHT22;55017;52.848;6.748;2023-10-09T11:33:51;16.90;99.90
57058;DHT22;55017;52.848;6.748;2023-10-09T11:36:18;16.90;99.90
57058;DHT22;55017;52.848;6.748;2023-10-09T11:38:57;17.00;99.90
57058;DHT22;55017;52.848;6.748;2023-10-09T11:41:42;16.90;99.90
57058;DHT22;55017;52.848;6.748;2023-10-09T11:44:07;17.00;99.90
57058;DHT22;55017;52.848;6.748;2023-10-09T11:46:57;17.00;99.90
57058;DHT22;55017;52.848;6.748;2023-10-09T11:49:23;17.00;99.90
57058;DHT22;55017;52.848;6.748;2023-10-09T11:52:09;17.10;99.90
57058;DHT22;55017;52.848;6.748;2023-10-09T11:54:55;17.20;99.90
57058;DHT22;55017;52.848;6.748;2023-10-09T11:57:22;17.10;99.90
57058;DHT22;55017;52.848;6.748;2023-10-09T11:59:56;17.20;99.90
57058;DHT22;55017;52.848;6.748;2023-10-09T12:02:21;17.20;99.90
57058;DHT22;55017;52.848;6.748;2023-10-09T12:04:47;17.20;99.90
57058;DHT22;55017;52.848;6.748;2023-10-09T12:07:13;17.30;99.90
57058;DHT22;55017;52.848;6.748;2023-10-09T12:09:38;17.40;99.90
57058;DHT22;55017;52.848;6.748;2023-10-09T12:12:06;17.50;99.90
57058;DHT22;55017;52.848;6.748;2023-10-09T12:14:33;17.60;99.90
57058;DHT22;55017;52.848;6.748;2023-10-09T12:17:08;17.60;99.90
57058;DHT22;55017;52.848;6.748;2023-10-09T12:19:40;17.50;99.90
57058;DHT22;55017;52.848;6.748;2023-10-09T12:22:08;17.50;99.90
57058;DHT22;55017;52.848;6.748;2023-10-09T12:24:41;17.50;99.90
57058;DHT22;55017;52.848;6.748;2023-10-09T12:27:09;17.40;99.90
57058;DHT22;55017;52.848;6.748;2023-10-09T12:29:37;17.50;99.90
57058;DHT22;55017;52.848;6.748;2023-10-09T12:32:02;17.50;99.90
57058;DHT22;55017;52.848;6.748;2023-10-09T12:34:29;17.60;99.90
57058;DHT22;55017;52.848;6.748;2023-10-09T12:36:59;17.70;99.90
57058;DHT22;55017;52.848;6.748;2023-10-09T12:39:27;17.90;99.90
57058;DHT22;55017;52.848;6.748;2023-10-09T12:42:01;17.90;99.90
57058;DHT22;55017;52.848;6.748;2023-10-09T12:44:37;18.00;99.90
57058;DHT22;55017;52.848;6.748;2023-10-09T12:47:07;18.30;99.90
57058;DHT22;55017;52.848;6.748;2023-10-09T12:49:32;18.70;99.90
57058;DHT22;55017;52.848;6.748;2023-10-09T12:51:58;18.80;99.90
57058;DHT22;55017;52.848;6.748;2023-10-09T12:54:27;19.00;99.90
57058;DHT22;55017;52.848;6.748;2023-10-09T12:56:53;19.20;99.90
57058;DHT22;55017;52.848;6.748;2023-10-09T12:59:19;19.10;99.90
57058;DHT22;55017;52.848;6.748;2023-10-09T13:01:46;19.00;99.90
57058;DHT22;55017;52.848;6.748;2023-10-09T13:04:18;18.90;99.90
57058;DHT22;55017;52.848;6.748;2023-10-09T13:06:44;18.90;99.90
57058;DHT22;55017;52.848;6.748;2023-10-09T13:09:11;18.80;99.90
57058;DHT22;55017;52.848;6.748;2023-10-09T13:11:39;18.70;99.90
57058;DHT22;55017;52.848;6.748;2023-10-09T13:14:06;18.60;99.90
57058;DHT22;55017;52.848;6.748;2023-10-09T13:16:42;18.50;99.90
57058;DHT22;55017;52.848;6.748;2023-10-09T13:19:08;18.40;99.90
57058;DHT22;55017;52.848;6.748;2023-10-09T13:21:37;18.40;99.90
57058;DHT22;55017;52.848;6.748;2023-10-09T13:24:04;18.40;99.90
57058;DHT22;55017;52.848;6.748;2023-10-09T13:26:30;18.30;99.90
57058;DHT22;55017;52.848;6.748;2023-10-09T13:28:58;18.40;99.90
57058;DHT22;55017;52.848;6.748;2023-10-09T13:31:25;18.30;99.90
57058;DHT22;55017;52.848;6.748;2023-10-09T13:33:53;18.30;99.90
57058;DHT22;55017;52.848;6.748;2023-10-09T13:36:22;18.20;99.90
57058;DHT22;55017;52.848;6.748;2023-10-09T13:39:04;18.40;99.90
57058;DHT22;55017;52.848;6.748;2023-10-09T13:41:57;18.50;99.90
57058;DHT22;55017;52.848;6.748;2023-10-09T13:44:26;18.50;99.90
57058;DHT22;55017;52.848;6.748;2023-10-09T13:47:00;18.40;99.90
57058;DHT22;55017;52.848;6.748;2023-10-09T13:49:31;18.50;99.90
57058;DHT22;55017;52.848;6.748;2023-10-09T13:51:57;18.40;99.90
57058;DHT22;55017;52.848;6.748;2023-10-09T13:54:23;18.40;99.90
57058;DHT22;55017;52.848;6.748;2023-10-09T13:57:02;18.40;99.90
57058;DHT22;55017;52.848;6.748;2023-10-09T13:59:31;18.50;99.90
57058;DHT22;55017;52.848;6.748;2023-10-09T14:01:57;18.40;99.90
57058;DHT22;55017;52.848;6.748;2023-10-09T14:04:25;18.40;99.90
57058;DHT22;55017;52.848;6.748;2023-10-09T14:06:51;18.40;99.90
57058;DHT22;55017;52.848;6.748;2023-10-09T14:09:25;18.40;99.90
57058;DHT22;55017;52.848;6.748;2023-10-09T14:12:14;18.30;99.90
57058;DHT22;55017;52.848;6.748;2023-10-09T14:14:45;18.40;99.90
57058;DHT22;55017;52.848;6.748;2023-10-09T14:17:23;18.30;99.90
57058;DHT22;55017;52.848;6.748;2023-10-09T14:19:50;18.30;99.90
57058;DHT22;55017;52.848;6.748;2023-10-09T14:22:21;18.30;99.90
57058;DHT22;55017;52.848;6.748;2023-10-09T14:24:49;18.30;99.90
57058;DHT22;55017;52.848;6.748;2023-10-09T14:27:22;18.30;99.90
57058;DHT22;55017;52.848;6.748;2023-10-09T14:29:51;18.30;99.90
57058;DHT22;55017;52.848;6.748;2023-10-09T14:32:17;18.30;99.90
57058;DHT22;55017;52.848;6.748;2023-10-09T14:34:43;18.50;99.90
57058;DHT22;55017;52.848;6.748;2023-10-09T14:37:18;18.40;99.90
57058;DHT22;55017;52.848;6.748;2023-10-09T14:39:47;18.40;99.90
57058;DHT22;55017;52.848;6.748;2023-10-09T14:42:17;18.40;99.90
57058;DHT22;55017;52.848;6.748;2023-10-09T14:44:43;18.30;99.90
57058;DHT22;55017;52.848;6.748;2023-10-09T14:47:10;18.30;99.90
57058;DHT22;55017;52.848;6.748;2023-10-09T14:49:36;18.30;99.90
57058;DHT22;55017;52.848;6.748;2023-10-09T14:52:12;18.10;99.90
57058;DHT22;55017;52.848;6.748;2023-10-09T14:54:45;18.20;99.90
57058;DHT22;55017;52.848;6.748;2023-10-09T14:57:11;18.10;99.90
57058;DHT22;55017;52.848;6.748;2023-10-09T14:59:38;18.20;99.90
57058;DHT22;55017;52.848;6.748;2023-10-09T15:02:04;18.00;99.90
57058;DHT22;55017;52.848;6.748;2023-10-09T15:04:33;18.10;99.90
57058;DHT22;55017;52.848;6.748;2023-10-09T15:07:02;18.00;99.90
57058;DHT22;55017;52.848;6.748;2023-10-09T15:09:28;17.80;99.90
57058;DHT22;55017;52.848;6.748;2023-10-09T15:11:54;17.80;99.90
57058;DHT22;55017;52.848;6.748;2023-10-09T15:14:20;17.80;99.90
57058;DHT22;55017;52.848;6.748;2023-10-09T15:16:47;17.70;99.90
57058;DHT22;55017;52.848;6.748;2023-10-09T15:19:13;17.70;99.90
57058;DHT22;55017;52.848;6.748;2023-10-09T15:21:40;17.70;99.90
57058;DHT22;55017;52.848;6.748;2023-10-09T15:24:13;17.60;99.90
57058;DHT22;55017;52.848;6.748;2023-10-09T15:26:42;17.50;99.90
57058;DHT22;55017;52.848;6.748;2023-10-09T15:29:08;17.80;99.90
57058;DHT22;55017;52.848;6.748;2023-10-09T15:31:36;17.50;99.90
57058;DHT22;55017;52.848;6.748;2023-10-09T15:34:02;17.60;99.90
57058;DHT22;55017;52.848;6.748;2023-10-09T15:36:28;17.40;99.90
57058;DHT22;55017;52.848;6.748;2023-10-09T15:38:57;17.40;99.90
57058;DHT22;55017;52.848;6.748;2023-10-09T15:41:28;17.50;99.90
57058;DHT22;55017;52.848;6.748;2023-10-09T15:43:57;17.30;99.90
57058;DHT22;55017;52.848;6.748;2023-10-09T15:46:22;17.30;99.90
57058;DHT22;55017;52.848;6.748;2023-10-09T15:48:48;17.40;99.90
57058;DHT22;55017;52.848;6.748;2023-10-09T15:51:16;17.20;99.90
57058;DHT22;55017;52.848;6.748;2023-10-09T15:53:46;17.20;99.90
57058;DHT22;55017;52.848;6.748;2023-10-09T15:56:13;17.30;99.90
57058;DHT22;55017;52.848;6.748;2023-10-09T15:58:40;17.30;99.90
57058;DHT22;55017;52.848;6.748;2023-10-09T16:01:12;17.30;99.90
57058;DHT22;55017;52.848;6.748;2023-10-09T16:03:42;17.20;99.90
57058;DHT22;55017;52.848;6.748;2023-10-09T16:06:12;17.30;99.90
57058;DHT22;55017;52.848;6.748;2023-10-09T16:08:39;17.10;99.90
57058;DHT22;55017;52.848;6.748;2023-10-09T16:11:05;17.10;99.90
57058;DHT22;55017;52.848;6.748;2023-10-09T16:13:31;17.10;99.90
57058;DHT22;55017;52.848;6.748;2023-10-09T16:15:58;17.10;99.90
57058;DHT22;55017;52.848;6.748;2023-10-09T16:18:25;17.00;99.90
57058;DHT22;55017;52.848;6.748;2023-10-09T16:20:54;17.10;99.90
57058;DHT22;55017;52.848;6.748;2023-10-09T16:23:20;17.10;99.90
57058;DHT22;55017;52.848;6.748;2023-10-09T16:25:45;17.10;99.90
57058;DHT22;55017;52.848;6.748;2023-10-09T16:28:11;17.10;99.90